Time;durP1;ratioP1;P1;durP2;ratioP2;P2;SDS_P1;SDS_P2;PMS_P1;PMS_P2;Temp;Humidity;BMP_temperature;BMP_pressure;BME280_temperature;BME280_humidity;BME280_pressure;Samples;Min_cycle;Max_cycle;Signal;HPM_P1;HPM_P2
2022/12/23 00:00:17;;;;;;;10.70;5.82;;;8.50;98.00;;;;;;5000285;28;20039;-66
2022/12/23 00:02:43;;;;;;;11.43;5.35;;;8.60;98.10;;;;;;5000889;28;20030;-66
2022/12/23 00:05:09;;;;;;;6.95;4.55;;;8.60;98.00;;;;;;4996798;28;20034;-65
2022/12/23 00:07:35;;;;;;;15.75;6.30;;;8.60;97.90;;;;;;5000706;28;20037;-65
2022/12/23 00:10:01;;;;;;;8.82;5.22;;;8.60;98.00;;;;;;4992234;28;20034;-64
2022/12/23 00:15:12;;;;;;;7.88;4.80;;;8.60;98.00;;;;;;4999027;28;20136;-65
2022/12/23 00:17:42;;;;;;;8.00;4.72;;;8.60;98.20;;;;;;5000364;28;20026;-65
2022/12/23 00:20:13;;;;;;;12.63;5.65;;;8.60;98.20;;;;;;4996874;28;20049;-65
2022/12/23 00:25:39;;;;;;;10.57;5.93;;;8.50;98.20;;;;;;4995635;28;20045;-65
2022/12/23 00:28:17;;;;;;;12.60;6.30;;;8.50;98.10;;;;;;4999197;28;20065;-65
2022/12/23 00:30:59;;;;;;;8.20;4.78;;;8.50;98.10;;;;;;4997539;28;20037;-65
2022/12/23 00:33:37;;;;;;;8.95;5.05;;;8.50;98.10;;;;;;5003920;28;20034;-65
2022/12/23 00:36:13;;;;;;;8.50;5.45;;;8.50;98.20;;;;;;5000869;28;20049;-65
2022/12/23 00:44:08;;;;;;;8.98;5.30;;;8.50;98.20;;;;;;4995825;28;20800;-65
2022/12/23 00:46:34;;;;;;;8.65;5.60;;;8.50;98.20;;;;;;4997984;28;20030;-65
2022/12/23 00:51:44;;;;;;;12.18;6.55;;;8.50;98.50;;;;;;4996395;28;20167;-65
2022/12/23 00:54:10;;;;;;;13.30;7.47;;;8.50;98.50;;;;;;5000531;28;20793;-65
2022/12/23 00:56:36;;;;;;;14.10;7.40;;;8.50;98.60;;;;;;5000447;28;20087;-66
2022/12/23 00:59:02;;;;;;;12.10;6.78;;;8.50;98.70;;;;;;4999867;28;20053;-65
2022/12/23 01:06:59;;;;;;;12.93;7.05;;;8.60;98.80;;;;;;4996678;28;20084;-65
2022/12/23 01:09:25;;;;;;;14.13;7.80;;;8.50;98.70;;;;;;4996700;28;20042;-65
2022/12/23 01:11:51;;;;;;;14.63;7.22;;;8.50;98.70;;;;;;5001499;28;20036;-65
2022/12/23 01:14:17;;;;;;;13.43;6.78;;;8.50;98.60;;;;;;4999800;28;20042;-66
2022/12/23 01:16:43;;;;;;;14.00;7.43;;;8.50;98.70;;;;;;4999948;28;20100;-66
2022/12/23 01:19:09;;;;;;;11.30;6.57;;;8.50;98.70;;;;;;4996818;28;20044;-66
2022/12/23 01:21:35;;;;;;;13.23;7.43;;;8.50;98.70;;;;;;4997419;28;20037;-66
2022/12/23 01:24:01;;;;;;;16.15;8.30;;;8.60;98.60;;;;;;4994416;28;20116;-65
2022/12/23 01:26:27;;;;;;;14.93;7.72;;;8.60;98.60;;;;;;4998566;28;20034;-65
2022/12/23 01:28:57;;;;;;;13.90;8.15;;;8.50;98.50;;;;;;4999105;28;20042;-65
2022/12/23 01:31:24;;;;;;;13.00;7.22;;;8.60;98.60;;;;;;4999084;28;20039;-65
2022/12/23 01:33:51;;;;;;;13.52;7.75;;;8.60;98.40;;;;;;5000341;28;20029;-65
2022/12/23 01:36:17;;;;;;;12.90;7.43;;;8.60;98.40;;;;;;4996273;28;20096;-65
2022/12/23 01:38:43;;;;;;;18.42;8.75;;;8.60;98.50;;;;;;4998161;28;20077;-65
2022/12/23 01:42:42;;;;;;;16.50;8.30;;;8.60;98.60;;;;;;4993408;28;20038;-65
2022/12/23 01:44:41;;;;;;;15.43;7.32;;;8.60;98.60;;;;;;4995458;28;20080;-65
2022/12/23 01:47:13;;;;;;;16.23;8.27;;;8.60;98.60;;;;;;4995923;28;20096;-65
2022/12/23 01:49:39;;;;;;;14.43;8.00;;;8.60;98.50;;;;;;4998249;28;20037;-65
2022/12/23 01:52:05;;;;;;;15.02;8.73;;;8.60;98.50;;;;;;5000606;28;20506;-64
2022/12/23 01:54:32;;;;;;;13.98;8.02;;;8.60;98.70;;;;;;4998734;28;20494;-64
2022/12/23 01:56:58;;;;;;;17.50;8.88;;;8.60;98.80;;;;;;4997548;28;20133;-64
2022/12/23 02:04:54;;;;;;;16.20;7.78;;;8.60;99.10;;;;;;4995074;28;20042;-64
2022/12/23 02:10:06;;;;;;;15.98;8.52;;;8.70;99.00;;;;;;4997004;28;20473;-64
2022/12/23 02:12:59;;;;;;;16.92;8.18;;;8.70;99.00;;;;;;4997694;28;20060;-64
2022/12/23 02:18:26;;;;;;;18.92;9.77;;;8.60;99.00;;;;;;4994494;28;20514;-64
2022/12/23 02:21:00;;;;;;;20.38;9.85;;;8.60;99.10;;;;;;4998439;28;20065;-65
2022/12/23 02:23:45;;;;;;;18.85;9.55;;;8.60;99.10;;;;;;4994047;28;20041;-65
2022/12/23 02:26:39;;;;;;;17.77;9.20;;;8.60;99.10;;;;;;4998938;28;20037;-66
2022/12/23 02:29:36;;;;;;;15.68;8.48;;;8.50;99.10;;;;;;4997763;28;20072;-65
2022/12/23 02:32:40;;;;;;;19.52;9.35;;;8.50;99.20;;;;;;4997620;28;20056;-65
2022/12/23 02:35:43;;;;;;;22.20;9.77;;;8.50;99.40;;;;;;4996952;28;20044;-64
2022/12/23 02:38:15;;;;;;;15.48;8.48;;;8.50;99.30;;;;;;4994108;28;20070;-64
2022/12/23 02:41:02;;;;;;;18.38;9.50;;;8.50;99.30;;;;;;4996759;28;20034;-64
2022/12/23 02:44:04;;;;;;;18.23;8.68;;;8.50;99.30;;;;;;4997875;28;20021;-64
2022/12/23 02:46:35;;;;;;;17.83;9.27;;;8.50;99.30;;;;;;4968700;28;20042;-66
2022/12/23 02:49:07;;;;;;;18.08;8.93;;;8.40;99.40;;;;;;4998131;28;20030;-64
2022/12/23 02:51:38;;;;;;;19.60;9.07;;;8.50;99.50;;;;;;4997661;28;20112;-66
2022/12/23 02:54:07;;;;;;;18.50;9.55;;;8.50;99.70;;;;;;4995217;28;20139;-67
2022/12/23 02:56:35;;;;;;;17.73;8.93;;;8.50;99.40;;;;;;4994283;28;20030;-65
2022/12/23 02:59:11;;;;;;;17.38;9.88;;;8.50;99.50;;;;;;4992341;28;20046;-66
2022/12/23 03:01:38;;;;;;;20.02;9.68;;;8.50;99.50;;;;;;4993184;28;20543;-65
2022/12/23 03:04:04;;;;;;;19.38;9.52;;;8.50;99.50;;;;;;5000678;28;20540;-65
2022/12/23 03:06:42;;;;;;;17.90;8.95;;;8.50;99.50;;;;;;4999288;28;20041;-65
2022/12/23 03:09:10;;;;;;;17.67;9.07;;;8.50;99.50;;;;;;4998228;28;20875;-65
2022/12/23 03:12:04;;;;;;;19.70;9.43;;;8.60;99.50;;;;;;4997217;28;20727;-65
2022/12/23 03:14:51;;;;;;;18.70;8.80;;;8.60;99.50;;;;;;4996859;28;20409;-65
2022/12/23 03:17:35;;;;;;;18.73;9.05;;;8.60;99.50;;;;;;4992701;28;20038;-66
2022/12/23 03:20:32;;;;;;;19.40;8.77;;;8.60;99.50;;;;;;4997361;28;20033;-65
2022/12/23 03:23:04;;;;;;;18.95;9.95;;;8.60;99.30;;;;;;4984502;28;20053;-66
2022/12/23 03:25:55;;;;;;;19.90;9.68;;;8.70;99.20;;;;;;5003141;28;20076;-66
2022/12/23 03:28:38;;;;;;;17.83;9.25;;;8.70;99.10;;;;;;5001908;28;20036;-65
2022/12/23 03:31:16;;;;;;;17.00;9.23;;;8.70;99.10;;;;;;5001023;28;20925;-65
2022/12/23 03:33:48;;;;;;;16.42;8.70;;;8.70;99.10;;;;;;5002321;28;20030;-66
2022/12/23 03:36:21;;;;;;;17.27;9.40;;;8.70;99.10;;;;;;4995758;28;20038;-65
2022/12/23 03:38:49;;;;;;;17.02;8.40;;;8.70;99.00;;;;;;4996841;28;20151;-65
2022/12/23 03:41:27;;;;;;;16.67;8.55;;;8.70;99.00;;;;;;5001206;28;20041;-65
2022/12/23 03:44:11;;;;;;;16.90;8.63;;;8.70;99.10;;;;;;5002879;28;20046;-65
2022/12/23 03:46:49;;;;;;;17.08;9.30;;;8.70;99.20;;;;;;4996759;28;20126;-65
2022/12/23 03:49:37;;;;;;;17.48;8.23;;;8.70;99.20;;;;;;5001129;28;20040;-65
2022/12/23 03:52:11;;;;;;;17.95;9.13;;;8.70;99.20;;;;;;4997608;28;20050;-66
2022/12/23 03:54:50;;;;;;;17.73;9.38;;;8.70;99.20;;;;;;4997595;28;20041;-65
2022/12/23 03:57:18;;;;;;;17.45;9.00;;;8.70;99.40;;;;;;4994811;28;20088;-65
2022/12/23 03:59:49;;;;;;;19.42;9.52;;;8.70;99.30;;;;;;5000622;28;20113;-65
2022/12/23 04:02:46;;;;;;;20.63;9.93;;;8.70;99.30;;;;;;5002677;28;20065;-65
2022/12/23 04:05:26;;;;;;;15.73;8.85;;;8.70;99.30;;;;;;4988165;28;20942;-64
2022/12/23 04:08:27;;;;;;;17.75;9.10;;;8.70;99.40;;;;;;4998925;28;20041;-66
2022/12/23 04:10:53;;;;;;;15.40;8.73;;;8.70;99.50;;;;;;4996785;28;20045;-65
2022/12/23 04:13:18;;;;;;;17.77;9.30;;;8.80;99.50;;;;;;4999151;28;20014;-65
2022/12/23 04:15:45;;;;;;;16.15;8.65;;;8.80;99.50;;;;;;4996615;28;20771;-65
2022/12/23 04:18:10;;;;;;;21.23;10.43;;;8.80;99.50;;;;;;4997168;28;20508;-65
2022/12/23 04:20:36;;;;;;;19.02;9.52;;;8.80;99.50;;;;;;5003159;28;20034;-65
2022/12/23 04:23:02;;;;;;;18.52;8.90;;;8.80;99.50;;;;;;5002590;28;20374;-65
2022/12/23 04:25:28;;;;;;;17.35;8.68;;;8.80;99.50;;;;;;4999588;28;20048;-65
2022/12/23 04:27:54;;;;;;;17.85;8.27;;;8.80;99.50;;;;;;5001395;28;20113;-65
2022/12/23 04:30:20;;;;;;;16.35;8.50;;;8.90;99.50;;;;;;4995970;28;20864;-66
2022/12/23 04:32:45;;;;;;;17.05;8.57;;;8.90;99.40;;;;;;4997523;28;20512;-66
2022/12/23 04:35:12;;;;;;;18.83;8.77;;;8.90;99.50;;;;;;4992805;28;20054;-66
2022/12/23 04:37:38;;;;;;;16.55;8.98;;;8.90;99.60;;;;;;5004489;28;20049;-65
2022/12/23 04:40:05;;;;;;;20.63;10.15;;;8.90;99.50;;;;;;5002802;28;20046;-64
2022/12/23 04:42:31;;;;;;;18.27;9.32;;;8.90;99.50;;;;;;4997821;28;20124;-65
2022/12/23 04:44:57;;;;;;;16.27;8.77;;;8.90;99.50;;;;;;5000369;28;20757;-66
2022/12/23 04:47:22;;;;;;;16.42;8.85;;;8.90;99.70;;;;;;5000475;28;20562;-66
2022/12/23 04:49:48;;;;;;;16.90;10.13;;;8.90;99.70;;;;;;5001210;28;20030;-65
2022/12/23 04:52:14;;;;;;;20.67;9.63;;;8.90;99.70;;;;;;4994409;28;20109;-65
2022/12/23 04:54:39;;;;;;;21.95;9.10;;;8.90;99.60;;;;;;4996599;28;20399;-65
2022/12/23 04:57:05;;;;;;;15.20;8.52;;;9.00;99.40;;;;;;5002876;28;20779;-65
2022/12/23 04:59:31;;;;;;;12.85;7.22;;;8.90;99.30;;;;;;5002484;28;20033;-66
2022/12/23 05:01:57;;;;;;;20.45;9.18;;;9.00;99.40;;;;;;5000663;28;20046;-65
2022/12/23 05:04:23;;;;;;;15.15;7.97;;;9.00;99.50;;;;;;4999887;28;20053;-66
2022/12/23 05:06:51;;;;;;;15.25;7.13;;;8.90;99.50;;;;;;4998814;28;20029;-65
2022/12/23 05:09:17;;;;;;;11.90;6.75;;;8.90;99.50;;;;;;4998095;28;20342;-66
2022/12/23 05:11:43;;;;;;;12.07;6.85;;;9.00;99.50;;;;;;4995787;28;20510;-65
2022/12/23 05:14:10;;;;;;;16.73;8.23;;;9.00;99.40;;;;;;4999392;28;20041;-64
2022/12/23 05:16:36;;;;;;;15.68;8.15;;;9.00;99.60;;;;;;5002330;28;20877;-65
2022/12/23 05:19:01;;;;;;;11.43;6.28;;;9.00;99.60;;;;;;5001985;28;20037;-66
2022/12/23 05:21:27;;;;;;;12.98;6.93;;;9.00;99.60;;;;;;4999127;28;20851;-66
2022/12/23 05:23:53;;;;;;;11.18;6.40;;;9.00;99.60;;;;;;5001076;28;20100;-66
2022/12/23 05:26:19;;;;;;;11.68;6.70;;;9.00;99.60;;;;;;4998684;28;20133;-65
2022/12/23 05:28:45;;;;;;;11.48;6.53;;;9.00;99.60;;;;;;4997348;28;20065;-66
2022/12/23 05:31:11;;;;;;;11.27;6.05;;;9.00;99.50;;;;;;4992532;28;20086;-65
2022/12/23 05:33:37;;;;;;;12.80;7.25;;;9.00;99.60;;;;;;4999518;28;20084;-65
2022/12/23 05:36:04;;;;;;;10.18;6.43;;;9.10;99.50;;;;;;5001532;28;20125;-65
2022/12/23 05:38:30;;;;;;;10.65;5.65;;;9.10;99.60;;;;;;5002987;28;20057;-65
2022/12/23 05:40:56;;;;;;;10.30;5.80;;;9.10;99.60;;;;;;4999500;28;20109;-65
2022/12/23 05:43:23;;;;;;;10.63;6.28;;;9.10;99.60;;;;;;5000314;28;20037;-65
2022/12/23 05:45:50;;;;;;;9.10;5.90;;;9.10;99.50;;;;;;4996550;28;20477;-65
2022/12/23 05:48:16;;;;;;;11.52;5.85;;;9.10;99.60;;;;;;4997087;28;20116;-66
2022/12/23 05:50:42;;;;;;;10.35;5.45;;;9.10;99.60;;;;;;4998357;28;20049;-65
2022/12/23 05:53:08;;;;;;;9.57;5.63;;;9.20;99.60;;;;;;4998659;28;20502;-65
2022/12/23 05:55:34;;;;;;;9.45;5.40;;;9.20;99.60;;;;;;5001255;28;20042;-65
2022/12/23 05:58:01;;;;;;;9.52;5.40;;;9.20;99.60;;;;;;4997999;28;20494;-65
2022/12/23 06:00:27;;;;;;;10.10;5.93;;;9.20;99.60;;;;;;4997937;28;20485;-65
2022/12/23 06:02:52;;;;;;;9.23;5.53;;;9.20;99.60;;;;;;4996235;28;20041;-65
2022/12/23 06:05:18;;;;;;;9.38;5.25;;;9.20;99.60;;;;;;4997578;28;20180;-65
2022/12/23 06:07:44;;;;;;;9.23;5.03;;;9.20;99.60;;;;;;5022469;28;20031;-66
2022/12/23 06:10:10;;;;;;;9.73;5.25;;;9.20;99.70;;;;;;4991098;28;20510;-66
2022/12/23 06:12:37;;;;;;;10.02;4.97;;;9.30;99.70;;;;;;5001456;28;20521;-65
2022/12/23 06:15:03;;;;;;;9.52;5.55;;;9.30;99.70;;;;;;4996436;28;20152;-66
2022/12/23 06:17:29;;;;;;;7.57;4.43;;;9.30;99.80;;;;;;5001118;28;20022;-65
2022/12/23 06:19:55;;;;;;;9.10;4.82;;;9.30;99.90;;;;;;4997668;28;20795;-65
2022/12/23 06:22:22;;;;;;;8.63;4.57;;;9.30;99.90;;;;;;4995268;28;20680;-66
2022/12/23 06:24:49;;;;;;;9.68;5.47;;;9.30;99.90;;;;;;4996603;28;20045;-67
2022/12/23 06:27:15;;;;;;;9.45;5.18;;;9.40;99.90;;;;;;4995198;28;20041;-65
2022/12/23 06:29:40;;;;;;;10.60;5.25;;;9.40;99.90;;;;;;4996994;28;20041;-65
2022/12/23 06:32:06;;;;;;;8.98;5.13;;;9.40;99.90;;;;;;5000990;28;20034;-66
2022/12/23 06:34:32;;;;;;;8.15;4.85;;;9.40;99.90;;;;;;5000839;28;20776;-65
2022/12/23 06:36:58;;;;;;;12.20;5.65;;;9.40;99.90;;;;;;4999486;28;20061;-65
2022/12/23 06:39:24;;;;;;;8.63;5.43;;;9.50;99.90;;;;;;4997257;28;20037;-65
2022/12/23 06:41:50;;;;;;;9.60;5.47;;;9.50;99.90;;;;;;4996184;28;20418;-65
2022/12/23 06:44:17;;;;;;;11.93;6.10;;;9.50;99.90;;;;;;4993745;28;20692;-65
2022/12/23 06:46:43;;;;;;;8.73;5.70;;;9.50;99.90;;;;;;4993967;28;20257;-65
2022/12/23 06:49:08;;;;;;;9.25;6.15;;;9.60;99.90;;;;;;4994246;28;20479;-64
2022/12/23 06:51:34;;;;;;;8.68;5.72;;;9.60;99.90;;;;;;5000688;28;20763;-65
2022/12/23 06:54:00;;;;;;;10.68;5.68;;;9.60;99.90;;;;;;4999273;28;20625;-65
2022/12/23 06:56:26;;;;;;;12.15;6.95;;;9.60;99.90;;;;;;4997883;28;20077;-65
2022/12/23 06:58:52;;;;;;;13.60;7.35;;;9.60;99.90;;;;;;4996290;28;20066;-65
2022/12/23 07:01:18;;;;;;;11.55;7.30;;;9.60;99.90;;;;;;4993404;28;20763;-65
2022/12/23 07:03:44;;;;;;;10.73;6.53;;;9.60;99.90;;;;;;4994574;28;20140;-65
2022/12/23 07:06:10;;;;;;;12.55;7.40;;;9.60;99.90;;;;;;4990377;28;20109;-65
2022/12/23 07:08:36;;;;;;;13.30;7.57;;;9.60;99.90;;;;;;5000325;28;20034;-65
2022/12/23 07:11:03;;;;;;;18.73;8.63;;;9.60;99.90;;;;;;4999165;28;20037;-65
2022/12/23 07:13:31;;;;;;;14.23;8.00;;;9.60;99.90;;;;;;4995585;28;20026;-65
2022/12/23 07:15:57;;;;;;;15.90;8.50;;;9.60;99.90;;;;;;4996688;28;20037;-65
2022/12/23 07:18:23;;;;;;;10.48;6.75;;;9.70;99.90;;;;;;4995045;28;20430;-65
2022/12/23 07:20:50;;;;;;;14.05;7.90;;;9.70;99.90;;;;;;4994245;28;20598;-65
2022/12/23 07:23:15;;;;;;;13.55;7.25;;;9.70;99.90;;;;;;4991590;28;20070;-65
2022/12/23 07:25:41;;;;;;;14.63;8.10;;;9.70;99.90;;;;;;4993532;28;20137;-65
2022/12/23 07:28:07;;;;;;;15.15;7.78;;;9.70;99.90;;;;;;4999514;28;20034;-64
2022/12/23 07:30:34;;;;;;;12.20;6.90;;;9.70;99.90;;;;;;4995993;28;20045;-64
2022/12/23 07:32:59;;;;;;;13.70;6.82;;;9.70;99.90;;;;;;4997530;28;20040;-64
2022/12/23 07:35:25;;;;;;;14.82;7.50;;;9.70;99.90;;;;;;4995785;28;20443;-64
2022/12/23 07:37:54;;;;;;;17.55;10.30;;;9.70;99.90;;;;;;4998874;28;20099;-64
2022/12/23 07:40:24;;;;;;;16.98;8.73;;;9.70;99.90;;;;;;4993141;28;20046;-63
2022/12/23 07:42:53;;;;;;;15.02;8.43;;;9.70;99.80;;;;;;4992789;28;20042;-64
2022/12/23 07:45:19;;;;;;;18.52;9.30;;;9.70;99.80;;;;;;4995130;28;20081;-64
2022/12/23 07:47:45;;;;;;;16.85;7.57;;;9.70;99.60;;;;;;4999822;28;20022;-64
2022/12/23 07:50:11;;;;;;;13.88;7.80;;;9.60;99.60;;;;;;4996934;28;20029;-65
2022/12/23 07:52:37;;;;;;;14.65;7.53;;;9.60;99.70;;;;;;4997754;28;20040;-65
2022/12/23 07:55:04;;;;;;;14.98;7.78;;;9.60;99.60;;;;;;4994832;28;20033;-65
2022/12/23 07:57:36;;;;;;;17.45;9.27;;;9.60;99.70;;;;;;4993908;28;20144;-65
2022/12/23 08:00:09;;;;;;;14.73;7.93;;;9.60;99.70;;;;;;4992013;28;20232;-65
2022/12/23 08:02:38;;;;;;;16.98;7.75;;;9.60;99.70;;;;;;4993916;28;20050;-65
2022/12/23 08:05:04;;;;;;;12.80;6.60;;;9.60;99.70;;;;;;4997395;28;20090;-64
2022/12/23 08:07:30;;;;;;;14.00;7.25;;;9.60;99.70;;;;;;4998729;28;20121;-64
2022/12/23 08:09:55;;;;;;;14.07;6.93;;;9.60;99.60;;;;;;4998257;28;20120;-64
2022/12/23 08:12:21;;;;;;;18.25;8.40;;;9.60;99.60;;;;;;4998557;28;20062;-64
2022/12/23 08:14:47;;;;;;;16.33;8.25;;;9.60;99.50;;;;;;4998711;28;20042;-65
2022/12/23 08:17:13;;;;;;;16.88;8.90;;;9.70;99.50;;;;;;4995209;28;20038;-65
2022/12/23 08:19:39;;;;;;;16.08;8.00;;;9.60;99.50;;;;;;4997302;28;20478;-65
2022/12/23 08:22:05;;;;;;;18.05;9.30;;;9.70;99.50;;;;;;4993472;28;20038;-65
2022/12/23 08:24:31;;;;;;;18.40;8.23;;;9.70;99.50;;;;;;5003407;28;20395;-64
2022/12/23 08:26:57;;;;;;;17.40;8.25;;;9.70;99.50;;;;;;5003917;28;20037;-64
2022/12/23 08:29:23;;;;;;;18.33;8.73;;;9.70;99.50;;;;;;5000101;28;20137;-65
2022/12/23 08:31:49;;;;;;;16.25;8.07;;;9.70;99.60;;;;;;4999914;28;20516;-65
2022/12/23 08:34:16;;;;;;;15.30;7.05;;;9.70;99.60;;;;;;4996853;28;20046;-65
2022/12/23 08:36:42;;;;;;;17.60;9.43;;;9.70;99.50;;;;;;4998637;28;20033;-65
2022/12/23 08:39:10;;;;;;;16.25;7.32;;;9.70;99.50;;;;;;4994581;28;20500;-65
2022/12/23 08:41:39;;;;;;;15.50;6.60;;;9.70;99.50;;;;;;4985722;28;21066;-65
2022/12/23 08:44:06;;;;;;;20.15;7.85;;;9.70;99.40;;;;;;5003797;28;20093;-64
2022/12/23 08:46:31;;;;;;;15.80;8.15;;;9.70;99.40;;;;;;5002133;28;20033;-65
2022/12/23 08:48:57;;;;;;;19.55;8.73;;;9.70;99.40;;;;;;5000676;28;20375;-64
2022/12/23 08:51:25;;;;;;;17.65;8.18;;;9.70;99.40;;;;;;5000188;28;20042;-64
2022/12/23 08:53:53;;;;;;;17.75;8.50;;;9.70;99.40;;;;;;4998692;28;20802;-64
2022/12/23 08:56:20;;;;;;;16.02;7.00;;;9.70;99.40;;;;;;4994910;28;20479;-65
2022/12/23 08:58:49;;;;;;;15.07;7.20;;;9.80;99.40;;;;;;4995294;28;20030;-66
2022/12/23 09:01:17;;;;;;;16.25;6.25;;;9.70;99.30;;;;;;4981808;28;20030;-64
2022/12/23 09:03:43;;;;;;;15.98;7.10;;;9.80;99.40;;;;;;5001941;28;20113;-64
2022/12/23 09:06:33;;;;;;;19.65;8.60;;;9.80;99.40;;;;;;5002731;28;20034;-64
2022/12/23 09:08:58;;;;;;;18.92;8.25;;;9.80;99.00;;;;;;4998125;28;20079;-65
2022/12/23 09:11:26;;;;;;;16.52;7.88;;;9.80;98.90;;;;;;4997680;28;20724;-64
2022/12/23 09:13:52;;;;;;;13.73;6.93;;;9.80;99.00;;;;;;4996709;28;20179;-64
2022/12/23 09:16:20;;;;;;;13.35;6.95;;;9.80;99.10;;;;;;4994854;28;20436;-65
2022/12/23 09:18:45;;;;;;;13.80;6.82;;;9.90;99.10;;;;;;4995306;28;20044;-64
2022/12/23 09:21:13;;;;;;;13.95;6.57;;;9.90;99.00;;;;;;4987385;28;20034;-67
2022/12/23 09:23:40;;;;;;;12.40;6.15;;;10.00;99.00;;;;;;4999593;28;20038;-64
2022/12/23 09:26:07;;;;;;;13.45;6.40;;;10.00;98.90;;;;;;5001053;28;20438;-64
2022/12/23 09:28:33;;;;;;;11.82;6.38;;;10.10;98.90;;;;;;4998981;28;20033;-65
2022/12/23 09:31:09;;;;;;;12.32;6.45;;;10.10;98.90;;;;;;4997286;28;20486;-66
2022/12/23 09:33:35;;;;;;;;;;;10.10;98.90;;;;;;4997791;28;20137;-65
2022/12/23 09:36:02;;;;;;;12.85;5.97;;;10.10;98.80;;;;;;4991533;28;19918;-65
2022/12/23 09:38:28;;;;;;;14.90;6.78;;;10.10;98.80;;;;;;4997487;28;20034;-64
2022/12/23 09:41:02;;;;;;;12.05;5.43;;;10.10;98.50;;;;;;5001461;28;20567;-65
2022/12/23 09:43:48;;;;;;;16.65;6.32;;;10.10;98.30;;;;;;4997579;28;20409;-67
2022/12/23 09:46:21;;;;;;;16.40;8.65;;;10.10;98.40;;;;;;4991975;28;20058;-65
2022/12/23 09:48:59;;;;;;;16.73;7.82;;;10.10;98.20;;;;;;4997800;28;20038;-65
2022/12/23 09:51:25;;;;;;;15.32;7.57;;;10.00;98.10;;;;;;4995728;28;20057;-65
2022/12/23 09:54:18;;;;;;;18.98;9.40;;;10.00;98.30;;;;;;4994301;28;20045;-65
2022/12/23 09:57:02;;;;;;;17.33;8.73;;;10.00;98.30;;;;;;4996066;28;20042;-65
2022/12/23 09:59:46;;;;;;;17.63;7.82;;;9.90;98.30;;;;;;4999491;28;20243;-65
2022/12/23 10:02:24;;;;;;;17.35;8.15;;;9.90;98.20;;;;;;4997602;28;20859;-65
2022/12/23 10:05:04;;;;;;;16.70;7.57;;;9.90;98.20;;;;;;4999322;28;20029;-65
2022/12/23 10:07:50;;;;;;;15.05;7.43;;;10.00;98.20;;;;;;4996523;28;20033;-65
2022/12/23 10:10:45;;;;;;;18.80;9.07;;;9.90;98.20;;;;;;4993993;28;20042;-65
2022/12/23 10:13:45;;;;;;;14.15;7.35;;;10.00;98.10;;;;;;4996013;28;20172;-65
2022/12/23 10:16:21;;;;;;;14.43;6.47;;;10.00;98.00;;;;;;4994788;28;20065;-65
2022/12/23 10:19:11;;;;;;;16.73;7.30;;;10.00;98.00;;;;;;5000790;28;20038;-65
2022/12/23 10:21:46;;;;;;;19.63;10.25;;;10.00;98.20;;;;;;4993324;28;20128;-65
2022/12/23 10:24:24;;;;;;;15.55;9.15;;;10.10;98.40;;;;;;4995939;28;20072;-65
2022/12/23 10:27:17;;;;;;;17.63;7.93;;;10.20;98.10;;;;;;4997532;28;20033;-65
2022/12/23 10:29:42;;;;;;;27.30;12.82;;;10.30;98.20;;;;;;4994499;28;20061;-65
2022/12/23 10:32:49;;;;;;;26.55;13.45;;;10.40;98.10;;;;;;4992711;28;20088;-65
2022/12/23 10:35:30;;;;;;;25.27;11.98;;;10.50;98.10;;;;;;4999599;28;20038;-64
2022/12/23 10:38:20;;;;;;;19.98;9.32;;;10.50;97.60;;;;;;5000855;28;20139;-64
2022/12/23 10:40:53;;;;;;;13.65;6.72;;;10.50;97.40;;;;;;4998065;28;20149;-64
2022/12/23 10:43:28;;;;;;;14.32;6.63;;;10.50;97.30;;;;;;5000217;28;20057;-65
2022/12/23 10:45:56;;;;;;;20.13;8.98;;;10.50;97.60;;;;;;4997264;28;20034;-66
2022/12/23 10:48:50;;;;;;;15.30;6.22;;;10.50;97.60;;;;;;4996050;28;20581;-65
2022/12/23 10:51:22;;;;;;;13.27;6.15;;;10.50;97.50;;;;;;4991475;28;20126;-66
2022/12/23 10:53:55;;;;;;;12.02;5.78;;;10.50;97.70;;;;;;4993608;28;20034;-68
2022/12/23 10:56:21;;;;;;;9.55;5.15;;;10.50;97.80;;;;;;4999918;28;20148;-67
2022/12/23 10:58:54;;;;;;;11.90;6.05;;;10.60;97.70;;;;;;4999391;28;20117;-68
2022/12/23 11:01:21;;;;;;;13.15;6.65;;;10.60;97.60;;;;;;4997915;28;20080;-66
2022/12/23 11:04:08;;;;;;;12.95;5.65;;;10.50;97.60;;;;;;4997064;28;20398;-66
2022/12/23 11:06:39;;;;;;;9.88;5.18;;;10.50;97.50;;;;;;4994619;28;20120;-66
2022/12/23 11:09:13;;;;;;;13.00;6.50;;;10.50;97.50;;;;;;4990373;28;20034;-66
2022/12/23 11:12:03;;;;;;;11.00;5.65;;;10.50;97.40;;;;;;4993716;28;20038;-66
2022/12/23 11:14:41;;;;;;;10.93;4.93;;;10.50;97.50;;;;;;4993012;28;20049;-65
2022/12/23 11:17:30;;;;;;;10.40;5.15;;;10.40;97.50;;;;;;4997360;28;20034;-65
2022/12/23 11:20:16;;;;;;;12.68;5.38;;;10.40;97.50;;;;;;4995344;28;20046;-65
2022/12/23 11:22:53;;;;;;;10.10;5.03;;;10.30;97.50;;;;;;4994821;28;20183;-65
2022/12/23 11:25:32;;;;;;;11.38;5.20;;;10.30;97.50;;;;;;4994870;28;20133;-65
2022/12/23 11:28:03;;;;;;;9.15;4.63;;;10.30;97.60;;;;;;4995698;28;20399;-65
2022/12/23 11:30:33;;;;;;;10.38;5.22;;;10.30;97.70;;;;;;4992957;28;20080;-66
2022/12/23 11:32:59;;;;;;;9.32;4.93;;;10.20;97.80;;;;;;5001112;28;20045;-66
2022/12/23 11:35:28;;;;;;;11.02;5.40;;;10.30;97.90;;;;;;5000083;28;20061;-66
2022/12/23 11:37:56;;;;;;;14.10;5.55;;;10.20;97.90;;;;;;4996663;28;20034;-66
2022/12/23 11:40:26;;;;;;;10.52;5.43;;;10.20;97.80;;;;;;4998141;28;20030;-67
2022/12/23 11:43:04;;;;;;;16.08;6.57;;;10.20;97.80;;;;;;4999423;28;20033;-67
2022/12/23 11:45:35;;;;;;;13.35;6.05;;;10.20;97.90;;;;;;5003849;28;20049;-67
2022/12/23 11:48:06;;;;;;;12.13;5.80;;;10.20;97.70;;;;;;5001228;28;20065;-66
2022/12/23 11:50:38;;;;;;;14.90;6.68;;;10.20;97.70;;;;;;5001288;28;20032;-67
2022/12/23 11:53:17;;;;;;;11.07;5.53;;;10.20;97.80;;;;;;5000885;28;20034;-66
2022/12/23 11:56:07;;;;;;;12.60;6.05;;;10.10;97.80;;;;;;5001425;28;20049;-67
2022/12/23 11:58:46;;;;;;;13.65;6.03;;;10.10;97.80;;;;;;4998965;28;20595;-67
2022/12/23 12:01:19;;;;;;;11.35;5.70;;;10.10;97.80;;;;;;5000356;28;20117;-68
2022/12/23 12:03:54;;;;;;;11.43;5.28;;;10.00;97.90;;;;;;4998685;28;20152;-68
2022/12/23 12:06:21;;;;;;;10.65;5.13;;;10.00;98.00;;;;;;5002016;28;20038;-66
2022/12/23 12:08:52;;;;;;;12.90;6.00;;;10.00;98.10;;;;;;4997873;28;20026;-66
2022/12/23 12:11:43;;;;;;;13.38;4.82;;;10.10;98.20;;;;;;5004009;28;20026;-68
2022/12/23 12:14:20;;;;;;;13.80;7.03;;;10.10;98.30;;;;;;5001624;28;20041;-65
2022/12/23 12:17:09;;;;;;;14.13;6.55;;;10.10;98.20;;;;;;5001821;28;20030;-66
2022/12/23 12:20:00;;;;;;;12.43;6.30;;;10.10;98.30;;;;;;5000705;28;20030;-65
2022/12/23 12:23:13;;;;;;;15.75;7.47;;;10.20;98.30;;;;;;5004719;28;20046;-66
2022/12/23 12:25:45;;;;;;;18.15;7.15;;;10.20;98.10;;;;;;4992363;28;20065;-67
2022/12/23 12:28:26;;;;;;;16.23;6.75;;;10.30;97.90;;;;;;4997488;28;20864;-66
2022/12/23 12:31:01;;;;;;;14.27;6.75;;;10.40;97.80;;;;;;5002800;28;20037;-66
2022/12/23 12:33:55;;;;;;;14.88;6.82;;;10.40;97.90;;;;;;5001852;28;20034;-66
2022/12/23 12:36:44;;;;;;;15.70;8.85;;;10.40;97.80;;;;;;4999184;28;20026;-66
2022/12/23 12:39:18;;;;;;;17.90;8.25;;;10.40;97.80;;;;;;5003704;28;20030;-66
2022/12/23 12:41:59;;;;;;;16.67;8.13;;;10.40;97.80;;;;;;4997027;28;20072;-67
2022/12/23 12:44:40;;;;;;;21.55;11.02;;;10.40;97.90;;;;;;5003616;28;20063;-66
2022/12/23 12:47:16;;;;;;;23.00;11.77;;;10.40;97.60;;;;;;4996267;28;20792;-67
2022/12/23 12:49:57;;;;;;;21.88;10.13;;;10.40;97.50;;;;;;5002916;28;20461;-66
2022/12/23 12:52:26;;;;;;;15.52;7.80;;;10.40;97.50;;;;;;5001739;28;20085;-67
2022/12/23 12:55:03;;;;;;;18.95;9.13;;;10.30;97.50;;;;;;5000632;28;20061;-67
2022/12/23 12:57:33;;;;;;;16.15;7.85;;;10.30;97.70;;;;;;5001441;28;20025;-67
2022/12/23 12:59:59;;;;;;;15.38;8.27;;;10.20;97.70;;;;;;5000784;28;20140;-65
2022/12/23 13:02:51;;;;;;;18.77;8.85;;;10.20;97.70;;;;;;5000024;28;20046;-66
2022/12/23 13:05:52;;;;;;;14.73;8.10;;;10.10;97.70;;;;;;4996492;28;20074;-66
2022/12/23 13:08:59;;;;;;;15.23;7.30;;;10.10;97.70;;;;;;5002185;28;20039;-67
2022/12/23 13:11:44;;;;;;;15.65;8.27;;;10.10;97.90;;;;;;4960807;28;20035;-66
2022/12/23 13:14:22;;;;;;;11.93;7.22;;;10.10;97.90;;;;;;4995981;28;20045;-66
2022/12/23 13:16:57;;;;;;;16.10;7.85;;;10.10;98.00;;;;;;5003826;28;20131;-67
2022/12/23 13:19:35;;;;;;;16.10;8.38;;;10.20;97.80;;;;;;4999879;28;20027;-65
2022/12/23 13:22:12;;;;;;;15.00;8.45;;;10.20;97.50;;;;;;4996457;28;20031;-66
2022/12/23 13:24:59;;;;;;;16.77;8.02;;;10.20;97.60;;;;;;4996022;28;20036;-67
2022/12/23 13:27:33;;;;;;;17.65;10.00;;;10.20;97.50;;;;;;5002617;28;20030;-67
2022/12/23 13:30:07;;;;;;;15.70;7.97;;;10.20;97.50;;;;;;4998908;28;20121;-66
2022/12/23 13:32:49;;;;;;;13.45;8.05;;;10.20;97.50;;;;;;4998676;28;20057;-67
2022/12/23 13:35:33;;;;;;;11.95;7.03;;;10.20;97.60;;;;;;4998146;28;20125;-66
2022/12/23 13:38:03;;;;;;;13.75;7.05;;;10.10;97.60;;;;;;4998252;28;20038;-66
2022/12/23 13:40:37;;;;;;;13.90;7.85;;;10.10;97.60;;;;;;4999415;28;20030;-66
2022/12/23 13:43:19;;;;;;;9.93;5.45;;;10.10;97.40;;;;;;5002473;28;20049;-66